sensor_id;sensor_type;location;lat;lon;timestamp;P1;durP1;ratioP1;P2;durP2;ratioP2
51296;SDS011;37380;45.186;9.792;2022-07-03T00:02:31;18.15;;;13.70;;
51296;SDS011;37380;45.186;9.792;2022-07-03T00:05:11;29.30;;;13.40;;
51296;SDS011;37380;45.186;9.792;2022-07-03T00:07:42;26.73;;;14.70;;
51296;SDS011;37380;45.186;9.792;2022-07-03T00:10:09;18.55;;;14.05;;
51296;SDS011;37380;45.186;9.792;2022-07-03T00:12:43;15.57;;;13.98;;
51296;SDS011;37380;45.186;9.792;2022-07-03T00:15:44;28.45;;;15.32;;
51296;SDS011;37380;45.186;9.792;2022-07-03T00:18:47;37.22;;;16.02;;
51296;SDS011;37380;45.186;9.792;2022-07-03T00:21:45;21.50;;;15.02;;
51296;SDS011;37380;45.186;9.792;2022-07-03T00:26:53;24.38;;;14.52;;
51296;SDS011;37380;45.186;9.792;2022-07-03T00:29:22;23.25;;;14.75;;
51296;SDS011;37380;45.186;9.792;2022-07-03T00:31:50;21.60;;;17.42;;
51296;SDS011;37380;45.186;9.792;2022-07-03T00:34:17;18.90;;;14.40;;
51296;SDS011;37380;45.186;9.792;2022-07-03T00:36:45;25.02;;;17.15;;
51296;SDS011;37380;45.186;9.792;2022-07-03T00:39:14;17.15;;;15.60;;
51296;SDS011;37380;45.186;9.792;2022-07-03T00:41:41;18.85;;;16.92;;
51296;SDS011;37380;45.186;9.792;2022-07-03T00:44:11;26.88;;;16.77;;
51296;SDS011;37380;45.186;9.792;2022-07-03T00:46:40;22.73;;;18.63;;
51296;SDS011;37380;45.186;9.792;2022-07-03T00:49:14;30.38;;;15.45;;
51296;SDS011;37380;45.186;9.792;2022-07-03T00:52:19;21.08;;;14.63;;
51296;SDS011;37380;45.186;9.792;2022-07-03T00:55:14;21.05;;;16.45;;
51296;SDS011;37380;45.186;9.792;2022-07-03T00:57:44;22.15;;;15.63;;
51296;SDS011;37380;45.186;9.792;2022-07-03T01:00:19;19.33;;;16.35;;
51296;SDS011;37380;45.186;9.792;2022-07-03T01:03:15;24.38;;;18.27;;
51296;SDS011;37380;45.186;9.792;2022-07-03T01:05:53;28.67;;;18.77;;
51296;SDS011;37380;45.186;9.792;2022-07-03T01:11:24;27.75;;;21.50;;
51296;SDS011;37380;45.186;9.792;2022-07-03T01:17:54;28.60;;;23.58;;
51296;SDS011;37380;45.186;9.792;2022-07-03T01:20:59;29.23;;;20.38;;
51296;SDS011;37380;45.186;9.792;2022-07-03T01:26:38;35.13;;;19.48;;
51296;SDS011;37380;45.186;9.792;2022-07-03T01:29:08;26.02;;;19.40;;
51296;SDS011;37380;45.186;9.792;2022-07-03T01:31:41;25.25;;;19.88;;
51296;SDS011;37380;45.186;9.792;2022-07-03T01:34:13;23.75;;;19.30;;
51296;SDS011;37380;45.186;9.792;2022-07-03T01:36:47;28.73;;;19.38;;
51296;SDS011;37380;45.186;9.792;2022-07-03T01:39:17;23.85;;;19.17;;
51296;SDS011;37380;45.186;9.792;2022-07-03T01:42:04;21.58;;;19.33;;
51296;SDS011;37380;45.186;9.792;2022-07-03T01:44:34;22.65;;;20.30;;
51296;SDS011;37380;45.186;9.792;2022-07-03T01:47:05;25.75;;;19.67;;
51296;SDS011;37380;45.186;9.792;2022-07-03T01:49:33;20.75;;;18.65;;
51296;SDS011;37380;45.186;9.792;2022-07-03T01:52:09;29.23;;;21.58;;
51296;SDS011;37380;45.186;9.792;2022-07-03T01:55:31;20.17;;;18.10;;
51296;SDS011;37380;45.186;9.792;2022-07-03T01:58:27;23.25;;;18.58;;
51296;SDS011;37380;45.186;9.792;2022-07-03T02:06:52;31.13;;;20.70;;
51296;SDS011;37380;45.186;9.792;2022-07-03T02:09:24;21.00;;;19.00;;
51296;SDS011;37380;45.186;9.792;2022-07-03T02:12:04;20.70;;;18.65;;
51296;SDS011;37380;45.186;9.792;2022-07-03T02:14:53;21.52;;;19.40;;
51296;SDS011;37380;45.186;9.792;2022-07-03T02:18:03;21.65;;;19.27;;
51296;SDS011;37380;45.186;9.792;2022-07-03T02:20:37;20.30;;;17.77;;
51296;SDS011;37380;45.186;9.792;2022-07-03T02:23:18;23.73;;;17.95;;
51296;SDS011;37380;45.186;9.792;2022-07-03T02:26:24;30.33;;;20.25;;
51296;SDS011;37380;45.186;9.792;2022-07-03T02:29:06;24.08;;;19.02;;
51296;SDS011;37380;45.186;9.792;2022-07-03T02:31:43;24.48;;;20.80;;
51296;SDS011;37380;45.186;9.792;2022-07-03T02:34:13;21.85;;;19.20;;
51296;SDS011;37380;45.186;9.792;2022-07-03T02:36:45;24.60;;;20.90;;
51296;SDS011;37380;45.186;9.792;2022-07-03T02:39:26;21.65;;;19.20;;
51296;SDS011;37380;45.186;9.792;2022-07-03T02:42:00;29.10;;;20.98;;
51296;SDS011;37380;45.186;9.792;2022-07-03T02:50:03;26.42;;;20.10;;
51296;SDS011;37380;45.186;9.792;2022-07-03T03:02:07;20.80;;;18.65;;
51296;SDS011;37380;45.186;9.792;2022-07-03T03:08:42;23.77;;;19.98;;
51296;SDS011;37380;45.186;9.792;2022-07-03T03:11:41;19.83;;;17.83;;
51296;SDS011;37380;45.186;9.792;2022-07-03T03:14:15;20.55;;;18.13;;
51296;SDS011;37380;45.186;9.792;2022-07-03T03:17:16;21.77;;;19.10;;
51296;SDS011;37380;45.186;9.792;2022-07-03T03:19:46;27.75;;;20.48;;
51296;SDS011;37380;45.186;9.792;2022-07-03T03:22:31;21.65;;;19.35;;
51296;SDS011;37380;45.186;9.792;2022-07-03T03:25:10;24.58;;;18.88;;
51296;SDS011;37380;45.186;9.792;2022-07-03T03:27:38;27.17;;;19.60;;
51296;SDS011;37380;45.186;9.792;2022-07-03T03:30:05;26.92;;;23.17;;
51296;SDS011;37380;45.186;9.792;2022-07-03T03:32:36;24.73;;;19.80;;
51296;SDS011;37380;45.186;9.792;2022-07-03T03:35:05;25.02;;;20.83;;
51296;SDS011;37380;45.186;9.792;2022-07-03T03:37:32;21.42;;;19.42;;
51296;SDS011;37380;45.186;9.792;2022-07-03T03:39:59;32.42;;;20.00;;
51296;SDS011;37380;45.186;9.792;2022-07-03T03:42:29;26.33;;;19.27;;
51296;SDS011;37380;45.186;9.792;2022-07-03T03:44:56;33.30;;;21.35;;
51296;SDS011;37380;45.186;9.792;2022-07-03T03:47:23;23.05;;;20.85;;
51296;SDS011;37380;45.186;9.792;2022-07-03T03:49:51;30.40;;;21.42;;
51296;SDS011;37380;45.186;9.792;2022-07-03T03:52:18;30.05;;;26.05;;
51296;SDS011;37380;45.186;9.792;2022-07-03T03:54:45;29.95;;;26.77;;
51296;SDS011;37380;45.186;9.792;2022-07-03T03:57:16;33.38;;;28.50;;
51296;SDS011;37380;45.186;9.792;2022-07-03T03:59:54;34.60;;;27.27;;
51296;SDS011;37380;45.186;9.792;2022-07-03T04:02:55;30.67;;;27.63;;
51296;SDS011;37380;45.186;9.792;2022-07-03T04:05:56;44.83;;;27.30;;
51296;SDS011;37380;45.186;9.792;2022-07-03T04:08:50;33.53;;;29.83;;
51296;SDS011;37380;45.186;9.792;2022-07-03T04:11:18;38.03;;;30.45;;
51296;SDS011;37380;45.186;9.792;2022-07-03T04:13:51;31.98;;;28.08;;
51296;SDS011;37380;45.186;9.792;2022-07-03T04:16:45;31.38;;;27.45;;
51296;SDS011;37380;45.186;9.792;2022-07-03T04:19:12;29.75;;;26.73;;
51296;SDS011;37380;45.186;9.792;2022-07-03T04:21:39;33.38;;;27.90;;
51296;SDS011;37380;45.186;9.792;2022-07-03T04:24:06;29.73;;;26.60;;
51296;SDS011;37380;45.186;9.792;2022-07-03T04:26:34;30.13;;;26.73;;
51296;SDS011;37380;45.186;9.792;2022-07-03T04:29:01;29.17;;;25.58;;
51296;SDS011;37380;45.186;9.792;2022-07-03T04:31:28;30.13;;;26.58;;
51296;SDS011;37380;45.186;9.792;2022-07-03T04:33:55;30.08;;;26.65;;
51296;SDS011;37380;45.186;9.792;2022-07-03T04:36:22;30.20;;;27.48;;
51296;SDS011;37380;45.186;9.792;2022-07-03T04:38:49;33.72;;;30.08;;
51296;SDS011;37380;45.186;9.792;2022-07-03T04:41:16;31.02;;;27.95;;
51296;SDS011;37380;45.186;9.792;2022-07-03T04:43:43;37.78;;;29.50;;
51296;SDS011;37380;45.186;9.792;2022-07-03T04:46:10;36.25;;;30.52;;
51296;SDS011;37380;45.186;9.792;2022-07-03T04:48:37;33.13;;;28.33;;
51296;SDS011;37380;45.186;9.792;2022-07-03T04:51:11;33.67;;;27.05;;
51296;SDS011;37380;45.186;9.792;2022-07-03T04:54:05;31.30;;;25.95;;
51296;SDS011;37380;45.186;9.792;2022-07-03T04:56:33;30.13;;;27.17;;
51296;SDS011;37380;45.186;9.792;2022-07-03T04:59:07;32.88;;;25.17;;
51296;SDS011;37380;45.186;9.792;2022-07-03T05:02:12;26.35;;;22.58;;
51296;SDS011;37380;45.186;9.792;2022-07-03T05:05:15;26.00;;;23.48;;
51296;SDS011;37380;45.186;9.792;2022-07-03T05:08:09;29.13;;;23.50;;
51296;SDS011;37380;45.186;9.792;2022-07-03T05:10:36;28.98;;;21.50;;
51296;SDS011;37380;45.186;9.792;2022-07-03T05:13:10;28.27;;;23.48;;
51296;SDS011;37380;45.186;9.792;2022-07-03T05:16:11;21.75;;;19.65;;
51296;SDS011;37380;45.186;9.792;2022-07-03T05:18:41;22.85;;;20.77;;
51296;SDS011;37380;45.186;9.792;2022-07-03T05:21:08;28.65;;;21.55;;
51296;SDS011;37380;45.186;9.792;2022-07-03T05:23:35;31.23;;;20.83;;
51296;SDS011;37380;45.186;9.792;2022-07-03T05:26:02;34.47;;;21.17;;
51296;SDS011;37380;45.186;9.792;2022-07-03T05:28:29;27.65;;;19.75;;
51296;SDS011;37380;45.186;9.792;2022-07-03T05:30:56;24.40;;;18.83;;
51296;SDS011;37380;45.186;9.792;2022-07-03T05:33:24;25.42;;;21.15;;
51296;SDS011;37380;45.186;9.792;2022-07-03T05:35:51;22.25;;;19.98;;
51296;SDS011;37380;45.186;9.792;2022-07-03T05:38:18;20.67;;;18.40;;
51296;SDS011;37380;45.186;9.792;2022-07-03T05:41:05;21.35;;;16.55;;
51296;SDS011;37380;45.186;9.792;2022-07-03T05:43:32;21.50;;;18.05;;
51296;SDS011;37380;45.186;9.792;2022-07-03T05:45:59;20.90;;;16.60;;
51296;SDS011;37380;45.186;9.792;2022-07-03T05:48:26;22.35;;;20.13;;
51296;SDS011;37380;45.186;9.792;2022-07-03T05:51:00;23.02;;;18.38;;
51296;SDS011;37380;45.186;9.792;2022-07-03T05:53:54;25.05;;;18.67;;
51296;SDS011;37380;45.186;9.792;2022-07-03T05:56:21;22.15;;;20.10;;
51296;SDS011;37380;45.186;9.792;2022-07-03T05:58:55;19.67;;;17.75;;
51296;SDS011;37380;45.186;9.792;2022-07-03T06:01:56;20.58;;;18.25;;
51296;SDS011;37380;45.186;9.792;2022-07-03T06:04:50;19.63;;;17.65;;
51296;SDS011;37380;45.186;9.792;2022-07-03T06:07:17;21.10;;;18.77;;
51296;SDS011;37380;45.186;9.792;2022-07-03T06:09:44;20.40;;;17.70;;
51296;SDS011;37380;45.186;9.792;2022-07-03T06:12:12;22.38;;;19.83;;
51296;SDS011;37380;45.186;9.792;2022-07-03T06:14:45;20.30;;;18.25;;
51296;SDS011;37380;45.186;9.792;2022-07-03T06:17:48;20.85;;;18.15;;
51296;SDS011;37380;45.186;9.792;2022-07-03T06:20:42;21.50;;;19.15;;
51296;SDS011;37380;45.186;9.792;2022-07-03T06:23:09;19.73;;;14.82;;
51296;SDS011;37380;45.186;9.792;2022-07-03T06:25:56;19.65;;;17.60;;
51296;SDS011;37380;45.186;9.792;2022-07-03T06:28:23;25.75;;;18.10;;
51296;SDS011;37380;45.186;9.792;2022-07-03T06:30:50;18.40;;;16.50;;
51296;SDS011;37380;45.186;9.792;2022-07-03T06:33:17;19.75;;;17.85;;
51296;SDS011;37380;45.186;9.792;2022-07-03T06:35:44;18.23;;;16.23;;
51296;SDS011;37380;45.186;9.792;2022-07-03T06:38:11;20.27;;;18.38;;
51296;SDS011;37380;45.186;9.792;2022-07-03T06:40:39;19.02;;;17.13;;
51296;SDS011;37380;45.186;9.792;2022-07-03T06:43:06;20.92;;;18.10;;
51296;SDS011;37380;45.186;9.792;2022-07-03T06:45:33;29.33;;;16.65;;
51296;SDS011;37380;45.186;9.792;2022-07-03T06:48:00;18.98;;;14.80;;
51296;SDS011;37380;45.186;9.792;2022-07-03T06:50:27;26.67;;;17.25;;
51296;SDS011;37380;45.186;9.792;2022-07-03T06:52:54;27.73;;;17.90;;
51296;SDS011;37380;45.186;9.792;2022-07-03T06:55:21;21.80;;;16.70;;
51296;SDS011;37380;45.186;9.792;2022-07-03T06:57:48;24.48;;;15.93;;
51296;SDS011;37380;45.186;9.792;2022-07-03T07:00:21;18.83;;;16.23;;
51296;SDS011;37380;45.186;9.792;2022-07-03T07:03:22;27.77;;;18.05;;
51296;SDS011;37380;45.186;9.792;2022-07-03T07:06:16;20.23;;;18.13;;
51296;SDS011;37380;45.186;9.792;2022-07-03T07:08:57;26.02;;;18.10;;
51296;SDS011;37380;45.186;9.792;2022-07-03T07:11:24;18.58;;;16.30;;
51296;SDS011;37380;45.186;9.792;2022-07-03T07:13:57;20.08;;;17.55;;
51296;SDS011;37380;45.186;9.792;2022-07-03T07:16:51;17.85;;;16.15;;
51296;SDS011;37380;45.186;9.792;2022-07-03T07:19:18;32.83;;;16.98;;
51296;SDS011;37380;45.186;9.792;2022-07-03T07:21:45;19.30;;;16.63;;
51296;SDS011;37380;45.186;9.792;2022-07-03T07:24:13;25.20;;;17.30;;
51296;SDS011;37380;45.186;9.792;2022-07-03T07:26:40;16.75;;;15.25;;
51296;SDS011;37380;45.186;9.792;2022-07-03T07:29:08;22.02;;;15.77;;
51296;SDS011;37380;45.186;9.792;2022-07-03T07:31:35;19.02;;;17.17;;
51296;SDS011;37380;45.186;9.792;2022-07-03T07:34:02;32.40;;;17.73;;
51296;SDS011;37380;45.186;9.792;2022-07-03T07:36:31;29.63;;;17.75;;
51296;SDS011;37380;45.186;9.792;2022-07-03T07:38:58;25.90;;;18.75;;
51296;SDS011;37380;45.186;9.792;2022-07-03T07:41:25;31.17;;;18.38;;
51296;SDS011;37380;45.186;9.792;2022-07-03T07:43:53;22.20;;;19.63;;
51296;SDS011;37380;45.186;9.792;2022-07-03T07:46:20;18.65;;;16.33;;
51296;SDS011;37380;45.186;9.792;2022-07-03T07:48:53;34.55;;;20.45;;
51296;SDS011;37380;45.186;9.792;2022-07-03T07:51:54;20.17;;;18.10;;
51296;SDS011;37380;45.186;9.792;2022-07-03T07:54:55;18.25;;;16.35;;
51296;SDS011;37380;45.186;9.792;2022-07-03T07:57:50;21.65;;;17.23;;
51296;SDS011;37380;45.186;9.792;2022-07-03T08:00:23;19.67;;;16.98;;
51296;SDS011;37380;45.186;9.792;2022-07-03T08:03:17;25.38;;;19.92;;
51296;SDS011;37380;45.186;9.792;2022-07-03T08:06:03;24.67;;;19.00;;
51296;SDS011;37380;45.186;9.792;2022-07-03T08:08:30;28.77;;;19.27;;
51296;SDS011;37380;45.186;9.792;2022-07-03T08:10:57;37.50;;;20.40;;
51296;SDS011;37380;45.186;9.792;2022-07-03T08:13:31;28.80;;;17.13;;
51296;SDS011;37380;45.186;9.792;2022-07-03T08:16:25;22.77;;;19.77;;
51296;SDS011;37380;45.186;9.792;2022-07-03T08:18:52;22.50;;;18.38;;
51296;SDS011;37380;45.186;9.792;2022-07-03T08:21:26;23.15;;;20.80;;
51296;SDS011;37380;45.186;9.792;2022-07-03T08:24:27;22.30;;;19.83;;
51296;SDS011;37380;45.186;9.792;2022-07-03T08:27:30;23.40;;;20.80;;
51296;SDS011;37380;45.186;9.792;2022-07-03T08:30:25;32.63;;;21.67;;
51296;SDS011;37380;45.186;9.792;2022-07-03T08:32:53;33.55;;;20.67;;
51296;SDS011;37380;45.186;9.792;2022-07-03T08:35:22;23.35;;;17.88;;
51296;SDS011;37380;45.186;9.792;2022-07-03T08:37:50;18.60;;;16.77;;
51296;SDS011;37380;45.186;9.792;2022-07-03T08:40:18;28.38;;;18.45;;
51296;SDS011;37380;45.186;9.792;2022-07-03T08:42:47;32.05;;;19.48;;
51296;SDS011;37380;45.186;9.792;2022-07-03T08:45:17;28.33;;;20.77;;
51296;SDS011;37380;45.186;9.792;2022-07-03T08:47:47;23.55;;;20.65;;
51296;SDS011;37380;45.186;9.792;2022-07-03T08:50:17;26.67;;;20.35;;
51296;SDS011;37380;45.186;9.792;2022-07-03T08:52:45;28.65;;;17.40;;
51296;SDS011;37380;45.186;9.792;2022-07-03T08:55:14;25.15;;;21.30;;
51296;SDS011;37380;45.186;9.792;2022-07-03T08:57:48;30.35;;;20.92;;
51296;SDS011;37380;45.186;9.792;2022-07-03T09:00:49;27.58;;;19.92;;
51296;SDS011;37380;45.186;9.792;2022-07-03T09:03:51;22.70;;;20.05;;
51296;SDS011;37380;45.186;9.792;2022-07-03T09:06:46;25.13;;;18.58;;
51296;SDS011;37380;45.186;9.792;2022-07-03T09:09:16;17.95;;;14.02;;
51296;SDS011;37380;45.186;9.792;2022-07-03T09:11:43;22.10;;;17.77;;
51296;SDS011;37380;45.186;9.792;2022-07-03T09:14:18;22.20;;;15.48;;
51296;SDS011;37380;45.186;9.792;2022-07-03T09:17:18;24.05;;;15.45;;
51296;SDS011;37380;45.186;9.792;2022-07-03T09:19:48;19.58;;;11.88;;
51296;SDS011;37380;45.186;9.792;2022-07-03T09:22:25;19.85;;;9.45;;
51296;SDS011;37380;45.186;9.792;2022-07-03T09:24:55;25.60;;;11.88;;
51296;SDS011;37380;45.186;9.792;2022-07-03T09:27:38;16.30;;;11.13;;
51296;SDS011;37380;45.186;9.792;2022-07-03T09:30:21;17.67;;;10.48;;
51296;SDS011;37380;45.186;9.792;2022-07-03T09:33:18;17.30;;;11.00;;
51296;SDS011;37380;45.186;9.792;2022-07-03T09:35:46;13.93;;;9.95;;
51296;SDS011;37380;45.186;9.792;2022-07-03T09:38:20;10.07;;;8.48;;
51296;SDS011;37380;45.186;9.792;2022-07-03T09:43:24;10.95;;;6.10;;
51296;SDS011;37380;45.186;9.792;2022-07-03T09:46:01;12.85;;;7.35;;
51296;SDS011;37380;45.186;9.792;2022-07-03T09:49:03;9.40;;;6.20;;
51296;SDS011;37380;45.186;9.792;2022-07-03T09:51:57;13.07;;;5.63;;
51296;SDS011;37380;45.186;9.792;2022-07-03T09:54:24;8.10;;;5.70;;
51296;SDS011;37380;45.186;9.792;2022-07-03T09:56:58;9.48;;;4.95;;
51296;SDS011;37380;45.186;9.792;2022-07-03T10:03:20;18.80;;;5.25;;
51296;SDS011;37380;45.186;9.792;2022-07-03T10:08:20;12.40;;;4.53;;
51296;SDS011;37380;45.186;9.792;2022-07-03T10:10:48;9.90;;;4.50;;
51296;SDS011;37380;45.186;9.792;2022-07-03T10:13:24;9.32;;;5.25;;
51296;SDS011;37380;45.186;9.792;2022-07-03T10:16:20;5.07;;;3.95;;
51296;SDS011;37380;45.186;9.792;2022-07-03T10:18:47;5.07;;;4.57;;
51296;SDS011;37380;45.186;9.792;2022-07-03T10:21:15;11.85;;;5.07;;
51296;SDS011;37380;45.186;9.792;2022-07-03T10:23:42;9.10;;;4.93;;
51296;SDS011;37380;45.186;9.792;2022-07-03T10:26:11;9.50;;;4.07;;
51296;SDS011;37380;45.186;9.792;2022-07-03T10:28:39;7.40;;;4.22;;
51296;SDS011;37380;45.186;9.792;2022-07-03T10:31:08;8.00;;;4.35;;
51296;SDS011;37380;45.186;9.792;2022-07-03T10:33:35;5.13;;;3.92;;
51296;SDS011;37380;45.186;9.792;2022-07-03T10:36:04;10.48;;;3.53;;
51296;SDS011;37380;45.186;9.792;2022-07-03T10:38:36;8.70;;;3.80;;
51296;SDS011;37380;45.186;9.792;2022-07-03T10:44:28;4.75;;;2.90;;
51296;SDS011;37380;45.186;9.792;2022-07-03T10:50:37;13.75;;;4.07;;
51296;SDS011;37380;45.186;9.792;2022-07-03T10:53:23;6.60;;;3.33;;
51296;SDS011;37380;45.186;9.792;2022-07-03T10:56:03;6.38;;;3.42;;
51296;SDS011;37380;45.186;9.792;2022-07-03T10:58:31;5.25;;;3.50;;
51296;SDS011;37380;45.186;9.792;2022-07-03T11:01:05;15.10;;;4.07;;
51296;SDS011;37380;45.186;9.792;2022-07-03T11:04:07;12.00;;;3.42;;
51296;SDS011;37380;45.186;9.792;2022-07-03T11:09:34;9.63;;;3.45;;
51296;SDS011;37380;45.186;9.792;2022-07-03T11:12:01;4.80;;;3.63;;
51296;SDS011;37380;45.186;9.792;2022-07-03T11:14:36;6.78;;;3.65;;
51296;SDS011;37380;45.186;9.792;2022-07-03T11:17:30;10.07;;;3.40;;
51296;SDS011;37380;45.186;9.792;2022-07-03T11:19:56;8.73;;;3.65;;
51296;SDS011;37380;45.186;9.792;2022-07-03T11:25:18;6.90;;;3.38;;
51296;SDS011;37380;45.186;9.792;2022-07-03T11:27:45;23.55;;;4.28;;
51296;SDS011;37380;45.186;9.792;2022-07-03T11:30:20;6.82;;;3.55;;
51296;SDS011;37380;45.186;9.792;2022-07-03T11:33:16;11.68;;;4.43;;
51296;SDS011;37380;45.186;9.792;2022-07-03T11:41:15;11.15;;;4.13;;
51296;SDS011;37380;45.186;9.792;2022-07-03T11:43:53;14.85;;;4.40;;
51296;SDS011;37380;45.186;9.792;2022-07-03T11:46:30;7.50;;;4.82;;
51296;SDS011;37380;45.186;9.792;2022-07-03T11:49:05;8.57;;;3.95;;
51296;SDS011;37380;45.186;9.792;2022-07-03T11:51:33;20.17;;;4.68;;
51296;SDS011;37380;45.186;9.792;2022-07-03T11:54:01;6.40;;;3.17;;
51296;SDS011;37380;45.186;9.792;2022-07-03T11:56:36;6.97;;;3.97;;
51296;SDS011;37380;45.186;9.792;2022-07-03T11:59:36;6.15;;;3.67;;
51296;SDS011;37380;45.186;9.792;2022-07-03T12:02:50;8.38;;;3.08;;
51296;SDS011;37380;45.186;9.792;2022-07-03T12:05:54;14.90;;;4.05;;
51296;SDS011;37380;45.186;9.792;2022-07-03T12:08:23;6.35;;;2.85;;
51296;SDS011;37380;45.186;9.792;2022-07-03T12:10:55;6.65;;;3.53;;
51296;SDS011;37380;45.186;9.792;2022-07-03T12:13:31;7.85;;;2.83;;
51296;SDS011;37380;45.186;9.792;2022-07-03T12:16:32;6.28;;;3.40;;
51296;SDS011;37380;45.186;9.792;2022-07-03T12:19:04;10.50;;;3.78;;
51296;SDS011;37380;45.186;9.792;2022-07-03T12:21:36;10.27;;;3.78;;
51296;SDS011;37380;45.186;9.792;2022-07-03T12:24:14;4.23;;;3.63;;
51296;SDS011;37380;45.186;9.792;2022-07-03T12:26:41;5.30;;;4.00;;
51296;SDS011;37380;45.186;9.792;2022-07-03T12:29:09;4.43;;;3.35;;
51296;SDS011;37380;45.186;9.792;2022-07-03T12:31:41;11.85;;;5.18;;
51296;SDS011;37380;45.186;9.792;2022-07-03T12:34:10;15.68;;;4.20;;
51296;SDS011;37380;45.186;9.792;2022-07-03T12:36:39;6.55;;;3.47;;
51296;SDS011;37380;45.186;9.792;2022-07-03T12:39:07;10.93;;;3.78;;
51296;SDS011;37380;45.186;9.792;2022-07-03T12:41:40;10.13;;;2.92;;
51296;SDS011;37380;45.186;9.792;2022-07-03T12:44:42;9.57;;;3.72;;
51296;SDS011;37380;45.186;9.792;2022-07-03T12:47:30;6.28;;;3.30;;
51296;SDS011;37380;45.186;9.792;2022-07-03T12:50:05;6.68;;;3.22;;
51296;SDS011;37380;45.186;9.792;2022-07-03T12:53:02;4.18;;;3.05;;
51296;SDS011;37380;45.186;9.792;2022-07-03T12:55:29;10.18;;;4.22;;
51296;SDS011;37380;45.186;9.792;2022-07-03T12:58:12;9.65;;;3.78;;
51296;SDS011;37380;45.186;9.792;2022-07-03T13:01:07;8.23;;;3.10;;
51296;SDS011;37380;45.186;9.792;2022-07-03T13:04:29;11.45;;;3.95;;
51296;SDS011;37380;45.186;9.792;2022-07-03T13:07:27;9.10;;;3.05;;
51296;SDS011;37380;45.186;9.792;2022-07-03T13:09:59;7.07;;;3.40;;
51296;SDS011;37380;45.186;9.792;2022-07-03T13:12:27;8.80;;;3.40;;
51296;SDS011;37380;45.186;9.792;2022-07-03T13:15:14;7.85;;;3.13;;
51296;SDS011;37380;45.186;9.792;2022-07-03T13:18:11;5.22;;;3.03;;
51296;SDS011;37380;45.186;9.792;2022-07-03T13:20:38;4.68;;;3.25;;
51296;SDS011;37380;45.186;9.792;2022-07-03T13:23:09;11.55;;;4.05;;
51296;SDS011;37380;45.186;9.792;2022-07-03T13:25:36;6.15;;;3.30;;
51296;SDS011;37380;45.186;9.792;2022-07-03T13:28:10;4.05;;;2.67;;
51296;SDS011;37380;45.186;9.792;2022-07-03T13:30:46;15.27;;;3.47;;
51296;SDS011;37380;45.186;9.792;2022-07-03T13:33:41;7.18;;;3.10;;
51296;SDS011;37380;45.186;9.792;2022-07-03T13:36:09;8.95;;;3.92;;
51296;SDS011;37380;45.186;9.792;2022-07-03T13:38:36;4.65;;;3.63;;
51296;SDS011;37380;45.186;9.792;2022-07-03T13:41:03;7.28;;;2.83;;
51296;SDS011;37380;45.186;9.792;2022-07-03T13:43:31;6.15;;;3.28;;
51296;SDS011;37380;45.186;9.792;2022-07-03T13:45:57;4.18;;;3.15;;
51296;SDS011;37380;45.186;9.792;2022-07-03T13:48:33;7.22;;;3.15;;
51296;SDS011;37380;45.186;9.792;2022-07-03T13:51:34;4.55;;;2.90;;
51296;SDS011;37380;45.186;9.792;2022-07-03T13:54:02;5.78;;;3.20;;
51296;SDS011;37380;45.186;9.792;2022-07-03T13:56:29;4.97;;;2.92;;
51296;SDS011;37380;45.186;9.792;2022-07-03T13:59:02;11.40;;;3.08;;
51296;SDS011;37380;45.186;9.792;2022-07-03T14:02:03;3.45;;;3.00;;
51296;SDS011;37380;45.186;9.792;2022-07-03T14:04:58;3.03;;;2.47;;
51296;SDS011;37380;45.186;9.792;2022-07-03T14:07:25;4.32;;;2.58;;
51296;SDS011;37380;45.186;9.792;2022-07-03T14:09:52;3.47;;;2.10;;
51296;SDS011;37380;45.186;9.792;2022-07-03T14:12:19;4.72;;;2.97;;
51296;SDS011;37380;45.186;9.792;2022-07-03T14:14:53;4.35;;;2.92;;
51296;SDS011;37380;45.186;9.792;2022-07-03T14:17:54;8.48;;;2.05;;
51296;SDS011;37380;45.186;9.792;2022-07-03T14:20:56;5.25;;;2.75;;
51296;SDS011;37380;45.186;9.792;2022-07-03T14:23:50;4.50;;;2.50;;
51296;SDS011;37380;45.186;9.792;2022-07-03T14:26:17;3.13;;;2.58;;
51296;SDS011;37380;45.186;9.792;2022-07-03T14:29:06;4.03;;;2.30;;
51296;SDS011;37380;45.186;9.792;2022-07-03T14:31:52;7.82;;;2.13;;
51296;SDS011;37380;45.186;9.792;2022-07-03T14:34:39;8.55;;;2.95;;
51296;SDS011;37380;45.186;9.792;2022-07-03T14:37:07;6.78;;;2.70;;
51296;SDS011;37380;45.186;9.792;2022-07-03T14:39:35;6.45;;;3.67;;
51296;SDS011;37380;45.186;9.792;2022-07-03T14:42:02;2.88;;;2.40;;
51296;SDS011;37380;45.186;9.792;2022-07-03T14:44:29;3.90;;;2.92;;
51296;SDS011;37380;45.186;9.792;2022-07-03T14:46:56;4.53;;;2.42;;
51296;SDS011;37380;45.186;9.792;2022-07-03T14:49:23;5.30;;;2.20;;
51296;SDS011;37380;45.186;9.792;2022-07-03T14:51:50;2.92;;;2.42;;
51296;SDS011;37380;45.186;9.792;2022-07-03T14:54:19;8.68;;;2.45;;
51296;SDS011;37380;45.186;9.792;2022-07-03T14:56:56;5.60;;;1.90;;
51296;SDS011;37380;45.186;9.792;2022-07-03T14:59:35;8.93;;;2.00;;
51296;SDS011;37380;45.186;9.792;2022-07-03T15:02:48;3.55;;;2.35;;
51296;SDS011;37380;45.186;9.792;2022-07-03T15:05:24;5.15;;;2.53;;
51296;SDS011;37380;45.186;9.792;2022-07-03T15:13:28;9.25;;;2.95;;
51296;SDS011;37380;45.186;9.792;2022-07-03T15:16:22;6.95;;;2.85;;
51296;SDS011;37380;45.186;9.792;2022-07-03T15:18:49;8.70;;;3.45;;
51296;SDS011;37380;45.186;9.792;2022-07-03T15:21:23;6.80;;;2.50;;
51296;SDS011;37380;45.186;9.792;2022-07-03T15:24:26;11.63;;;3.38;;
51296;SDS011;37380;45.186;9.792;2022-07-03T15:27:23;4.23;;;2.87;;
51296;SDS011;37380;45.186;9.792;2022-07-03T15:29:50;7.65;;;2.58;;
51296;SDS011;37380;45.186;9.792;2022-07-03T15:32:18;4.38;;;3.05;;
51296;SDS011;37380;45.186;9.792;2022-07-03T15:34:45;3.88;;;2.58;;
51296;SDS011;37380;45.186;9.792;2022-07-03T15:40:14;32.30;;;3.40;;
51296;SDS011;37380;45.186;9.792;2022-07-03T15:52:17;13.43;;;7.47;;
51296;SDS011;37380;45.186;9.792;2022-07-03T15:54:52;6.20;;;2.95;;
51296;SDS011;37380;45.186;9.792;2022-07-03T15:57:24;3.28;;;2.78;;
51296;SDS011;37380;45.186;9.792;2022-07-03T16:00:10;8.68;;;2.67;;
51296;SDS011;37380;45.186;9.792;2022-07-03T16:03:20;13.90;;;3.13;;
51296;SDS011;37380;45.186;9.792;2022-07-03T16:06:25;8.05;;;2.60;;
51296;SDS011;37380;45.186;9.792;2022-07-03T16:09:18;5.57;;;2.55;;
51296;SDS011;37380;45.186;9.792;2022-07-03T16:11:46;3.75;;;2.60;;
51296;SDS011;37380;45.186;9.792;2022-07-03T16:14:21;7.85;;;2.58;;
51296;SDS011;37380;45.186;9.792;2022-07-03T16:17:21;4.38;;;2.30;;
51296;SDS011;37380;45.186;9.792;2022-07-03T16:19:48;4.07;;;2.75;;
51296;SDS011;37380;45.186;9.792;2022-07-03T16:22:24;3.38;;;1.90;;
51296;SDS011;37380;45.186;9.792;2022-07-03T16:25:26;6.22;;;2.08;;
51296;SDS011;37380;45.186;9.792;2022-07-03T16:28:27;6.05;;;2.42;;
51296;SDS011;37380;45.186;9.792;2022-07-03T16:31:15;9.68;;;3.03;;
51296;SDS011;37380;45.186;9.792;2022-07-03T16:33:46;3.85;;;1.50;;
51296;SDS011;37380;45.186;9.792;2022-07-03T16:36:19;6.75;;;2.47;;
51296;SDS011;37380;45.186;9.792;2022-07-03T16:38:51;2.35;;;2.15;;
51296;SDS011;37380;45.186;9.792;2022-07-03T16:41:33;9.80;;;2.22;;
51296;SDS011;37380;45.186;9.792;2022-07-03T16:44:08;2.90;;;1.95;;
51296;SDS011;37380;45.186;9.792;2022-07-03T16:47:10;2.00;;;1.75;;
51296;SDS011;37380;45.186;9.792;2022-07-03T16:49:37;5.22;;;1.92;;
51296;SDS011;37380;45.186;9.792;2022-07-03T16:52:08;6.30;;;2.28;;
51296;SDS011;37380;45.186;9.792;2022-07-03T16:54:36;2.85;;;2.10;;